Inicio METAR Ruta Wind Satelite

Informe Meteorológico

Fecha: 2021/09/21 14:23:15 Local
2021.09.21 19:23 UTC


Operación:
SKGO 211800Z 03003KT 9999 SCT040 SCT080 28/21 Q1015 RMK A2997 =